Time;durP1;ratioP1;P1;durP2;ratioP2;P2;SDS_P1;SDS_P2;PMS_P1;PMS_P2;Temp;Humidity;BMP_temperature;BMP_pressure;BME280_temperature;BME280_humidity;BME280_pressure;Samples;Min_cycle;Max_cycle;Signal;HPM_P1;HPM_P2
2023/10/08 00:02:26;;;;;;;6.95;4.32;;;;;;;9.49;72.17;96675.69;5157302;27;20131;-61
2023/10/08 00:04:54;;;;;;;18.27;5.00;;;;;;;9.40;71.69;96661.16;5157205;27;20043;-63
2023/10/08 00:07:23;;;;;;;8.30;4.65;;;;;;;9.32;71.55;96665.75;5157255;27;20058;-63
2023/10/08 00:09:52;;;;;;;6.43;4.20;;;;;;;9.24;71.85;96655.53;5157191;27;20437;-61
2023/10/08 00:12:20;;;;;;;9.02;4.38;;;;;;;9.27;72.26;96655.44;5156994;27;20146;-62
2023/10/08 00:14:49;;;;;;;6.93;3.92;;;;;;;9.27;72.00;96650.22;5157222;27;20137;-63
2023/10/08 00:17:18;;;;;;;7.95;4.30;;;;;;;9.22;72.01;96637.31;5156956;27;20047;-63
2023/10/08 00:19:46;;;;;;;6.47;4.25;;;;;;;9.23;72.14;96643.38;5157006;27;20107;-62
2023/10/08 00:22:18;;;;;;;6.78;4.13;;;;;;;9.21;71.89;96643.44;5156861;27;20074;-62
2023/10/08 00:24:49;;;;;;;6.20;3.75;;;;;;;9.23;71.76;96640.78;5156957;27;20095;-63
2023/10/08 00:27:17;;;;;;;6.32;4.55;;;;;;;9.22;71.92;96631.25;5156742;27;20119;-62
2023/10/08 00:29:45;;;;;;;18.35;4.85;;;;;;;9.25;71.83;96630.28;5156838;27;20054;-63
2023/10/08 00:32:15;;;;;;;6.38;4.07;;;;;;;9.27;71.87;96631.94;5156767;27;20051;-63
2023/10/08 00:34:43;;;;;;;11.18;4.38;;;;;;;9.24;71.60;96626.81;5156689;27;20121;-63
2023/10/08 00:37:14;;;;;;;6.55;4.95;;;;;;;9.20;72.01;96620.00;5156620;27;20047;-61
2023/10/08 00:39:41;;;;;;;7.80;4.82;;;;;;;9.19;71.75;96620.91;5156366;27;20050;-63
2023/10/08 00:42:09;;;;;;;7.40;5.00;;;;;;;9.16;71.80;96616.63;5156393;27;20078;-63
2023/10/08 00:44:41;;;;;;;14.45;5.25;;;;;;;9.13;72.25;96619.34;5156498;27;20046;-61
2023/10/08 00:47:11;;;;;;;7.32;4.78;;;;;;;9.17;72.07;96615.72;5156399;27;20057;-61
2023/10/08 00:50:03;;;;;;;8.30;4.75;;;;;;;9.16;72.24;96618.38;5156175;27;20429;-62
2023/10/08 00:52:39;;;;;;;6.72;4.20;;;;;;;9.15;72.56;96611.47;5156352;27;20103;-63
2023/10/08 00:55:21;;;;;;;8.07;4.43;;;;;;;9.12;72.53;96609.78;5156296;27;20407;-61
2023/10/08 00:57:53;;;;;;;6.07;4.20;;;;;;;9.10;72.79;96599.41;5156287;27;20377;-61
2023/10/08 01:00:22;;;;;;;10.70;5.43;;;;;;;9.07;72.88;96591.69;5156096;27;20070;-62
2023/10/08 01:02:55;;;;;;;8.13;4.88;;;;;;;9.07;73.19;96599.53;5156170;27;20484;-63
2023/10/08 01:05:28;;;;;;;8.73;4.47;;;;;;;9.08;73.19;96596.00;5155907;27;20062;-63
2023/10/08 01:07:58;;;;;;;9.65;5.28;;;;;;;9.09;73.35;96592.47;5156077;27;20039;-62
2023/10/08 01:10:26;;;;;;;10.35;5.70;;;;;;;9.05;73.24;96588.25;5156045;27;20049;-62
2023/10/08 01:13:04;;;;;;;8.70;4.95;;;;;;;8.98;73.75;96582.34;5155862;27;20170;-63
2023/10/08 01:15:35;;;;;;;8.45;4.65;;;;;;;9.00;73.79;96582.31;5155746;27;20057;-63
2023/10/08 01:18:04;;;;;;;9.30;5.35;;;;;;;9.02;73.56;96584.88;5155796;27;20126;-61
2023/10/08 01:20:37;;;;;;;7.45;5.10;;;;;;;9.02;73.18;96588.34;5155730;27;20050;-63
2023/10/08 01:23:09;;;;;;;10.10;5.28;;;;;;;9.00;73.27;96581.47;5155635;27;20411;-62
2023/10/08 01:25:38;;;;;;;6.82;4.78;;;;;;;8.97;73.09;96580.66;5155213;27;20046;-63
2023/10/08 01:28:14;;;;;;;8.48;4.90;;;;;;;8.98;73.01;96576.31;5155413;27;20039;-61
2023/10/08 01:30:42;;;;;;;12.13;5.38;;;;;;;8.87;73.66;96575.75;5155500;27;20043;-63
2023/10/08 01:33:13;;;;;;;7.60;4.78;;;;;;;8.80;73.33;96567.28;5155580;27;20123;-61
2023/10/08 01:35:41;;;;;;;7.05;4.63;;;;;;;8.71;74.00;96574.50;5155456;27;20391;-63
2023/10/08 01:38:13;;;;;;;9.63;5.32;;;;;;;8.64;74.00;96572.94;5155444;27;20047;-62
2023/10/08 01:40:41;;;;;;;8.75;4.78;;;;;;;8.61;74.25;96564.38;5155409;27;20527;-63
2023/10/08 01:43:09;;;;;;;7.38;4.70;;;;;;;8.57;74.46;96567.09;5155639;27;20047;-62
2023/10/08 01:45:43;;;;;;;9.02;5.50;;;;;;;8.54;74.12;96566.31;5155330;27;20047;-61
2023/10/08 01:48:10;;;;;;;6.93;4.43;;;;;;;8.56;74.18;96565.38;5155279;27;20053;-61
2023/10/08 01:50:38;;;;;;;10.73;5.57;;;;;;;8.54;74.32;96561.97;5155208;27;20042;-62
2023/10/08 01:53:09;;;;;;;8.68;5.05;;;;;;;8.52;74.00;96555.88;5155136;27;20042;-61
2023/10/08 01:55:48;;;;;;;7.68;4.88;;;;;;;8.50;74.39;96564.66;5155201;27;20043;-63
2023/10/08 01:58:17;;;;;;;6.25;4.90;;;;;;;8.44;74.51;96563.09;5155107;27;20053;-62
2023/10/08 02:00:45;;;;;;;8.73;4.90;;;;;;;8.37;74.83;96564.19;5155194;27;20050;-60
2023/10/08 02:03:15;;;;;;;8.02;5.03;;;;;;;8.27;75.26;96558.34;5155100;27;20051;-61
2023/10/08 02:05:43;;;;;;;9.35;5.53;;;;;;;8.19;75.53;96561.19;5154996;27;20534;-62
2023/10/08 02:08:10;;;;;;;7.40;5.32;;;;;;;8.19;75.34;96567.25;5154897;27;20541;-62
2023/10/08 02:10:41;;;;;;;8.20;4.45;;;;;;;8.17;75.28;96562.97;5154895;27;20043;-63
2023/10/08 02:13:09;;;;;;;10.68;5.20;;;;;;;8.14;75.88;96558.72;5154910;27;20092;-61
2023/10/08 02:15:40;;;;;;;6.30;4.63;;;;;;;8.09;75.59;96558.84;5154866;27;20050;-62
2023/10/08 02:18:08;;;;;;;10.98;5.75;;;;;;;8.07;75.22;96562.41;5154887;27;20594;-63
2023/10/08 02:20:35;;;;;;;7.93;5.32;;;;;;;7.98;75.79;96558.28;5154829;27;20057;-63
2023/10/08 02:23:05;;;;;;;7.47;5.57;;;;;;;8.03;75.73;96561.59;5154796;27;20496;-63
2023/10/08 02:25:34;;;;;;;7.35;5.18;;;;;;;8.04;75.77;96558.09;5154744;27;20086;-63
2023/10/08 02:28:05;;;;;;;5.80;4.00;;;;;;;8.00;75.85;96553.88;5154661;27;20049;-61
2023/10/08 02:30:32;;;;;;;8.07;5.22;;;;;;;8.00;75.51;96540.84;5154742;27;20043;-61
2023/10/08 02:32:59;;;;;;;9.98;5.50;;;;;;;7.91;76.02;96544.56;5154926;27;20092;-63
2023/10/08 02:35:27;;;;;;;12.43;5.72;;;;;;;7.90;76.51;96550.69;5154786;27;20058;-61
2023/10/08 02:37:55;;;;;;;8.35;5.07;;;;;;;7.84;76.28;96550.84;5155148;27;20046;-63
2023/10/08 02:40:26;;;;;;;11.77;5.45;;;;;;;7.77;76.99;96541.50;5158869;27;20411;-63
2023/10/08 02:42:58;;;;;;;7.88;5.15;;;;;;;7.73;76.84;96551.13;5158873;27;20050;-62
2023/10/08 02:45:28;;;;;;;7.50;5.10;;;;;;;7.73;77.35;96547.69;5158833;27;20081;-63
2023/10/08 02:47:55;;;;;;;6.78;4.32;;;;;;;7.71;77.16;96550.31;5158776;27;20092;-62
2023/10/08 02:50:23;;;;;;;8.98;5.65;;;;;;;7.76;77.81;96552.78;5158549;27;20484;-62
2023/10/08 02:52:50;;;;;;;7.97;5.47;;;;;;;7.70;77.64;96546.00;5158537;27;20049;-63
2023/10/08 02:55:34;;;;;;;7.07;4.55;;;;;;;7.65;77.23;96553.91;5158598;27;20403;-63
2023/10/08 02:58:02;;;;;;;7.80;5.22;;;;;;;7.57;77.26;96548.06;5158790;27;20070;-61
2023/10/08 03:00:33;;;;;;;9.30;5.22;;;;;;;7.50;77.41;96543.91;5158407;27;20053;-62
2023/10/08 03:03:09;;;;;;;7.82;4.45;;;;;;;7.49;77.80;96544.81;5158546;27;20057;-62
2023/10/08 03:05:36;;;;;;;7.95;5.25;;;;;;;7.50;78.16;96546.53;5158640;27;20483;-60
2023/10/08 03:08:10;;;;;;;6.45;4.90;;;;;;;7.48;78.60;96543.97;5158401;27;20055;-62
2023/10/08 03:10:38;;;;;;;6.43;4.88;;;;;;;7.47;78.30;96542.25;5158317;27;20050;-62
2023/10/08 03:13:07;;;;;;;8.00;4.88;;;;;;;7.45;78.15;96542.28;5158188;27;20480;-63
2023/10/08 03:15:46;;;;;;;10.95;5.15;;;;;;;7.45;78.39;96549.25;5158289;27;20514;-62
2023/10/08 03:18:15;;;;;;;7.68;5.07;;;;;;;7.44;78.02;96548.38;5158171;27;20185;-63
2023/10/08 03:20:45;;;;;;;8.00;5.43;;;;;;;7.43;77.90;96549.28;5158010;27;20111;-64
2023/10/08 03:23:22;;;;;;;10.43;5.00;;;;;;;7.49;77.08;96550.88;5158129;27;20042;-61
2023/10/08 03:25:57;;;;;;;10.32;5.13;;;;;;;7.50;77.02;96547.38;5157959;27;20066;-62
2023/10/08 03:28:27;;;;;;;9.60;4.82;;;;;;;7.42;77.08;96546.72;5157992;27;20058;-63
2023/10/08 03:31:03;;;;;;;;;;;;;;;7.36;76.83;96545.13;5158372;27;20134;-62
2023/10/08 03:33:34;;;;;;;8.43;4.75;;;;;;;7.30;76.94;96540.06;5157994;27;19945;-60
2023/10/08 03:36:08;;;;;;;;;;;;;;;7.29;76.98;96544.41;5158461;27;20566;-62
2023/10/08 03:38:49;;;;;;;7.78;5.28;;;;;;;7.21;77.41;96546.34;5157910;27;20017;-63
2023/10/08 03:41:20;;;;;;;10.00;5.32;;;;;;;7.15;78.20;96541.28;5157773;27;20051;-62
2023/10/08 03:43:52;;;;;;;;;;;;;;;7.17;78.48;96544.72;5158074;27;20074;-61
2023/10/08 03:46:24;;;;;;;9.60;5.30;;;;;;;7.17;78.45;96536.91;5157745;27;20017;-61
2023/10/08 03:48:52;;;;;;;7.55;5.20;;;;;;;7.19;78.58;96535.97;5157041;27;20057;-63
2023/10/08 03:51:21;;;;;;;7.05;5.07;;;;;;;7.21;78.39;96535.94;5157687;27;20043;-62
2023/10/08 03:54:15;;;;;;;6.18;4.65;;;;;;;7.20;78.32;96535.06;5157512;27;20054;-63
2023/10/08 03:56:45;;;;;;;9.45;5.80;;;;;;;7.29;78.11;96534.00;5157420;27;20082;-62
2023/10/08 03:59:14;;;;;;;11.40;4.70;;;;;;;7.29;77.92;96530.56;5157286;27;20051;-61
2023/10/08 04:01:43;;;;;;;7.72;4.65;;;;;;;7.32;77.97;96526.13;5157228;27;20446;-64
2023/10/08 04:04:14;;;;;;;8.30;5.20;;;;;;;7.33;77.28;96517.44;5157247;27;20042;-63
2023/10/08 04:06:48;;;;;;;6.43;4.63;;;;;;;7.35;77.11;96519.13;5157308;27;20046;-62
2023/10/08 04:09:23;;;;;;;9.75;4.70;;;;;;;7.39;76.79;96520.75;5157343;27;20043;-62
2023/10/08 04:11:55;;;;;;;7.43;4.57;;;;;;;7.37;76.36;96518.19;5157085;27;20047;-63
2023/10/08 04:14:23;;;;;;;10.07;4.88;;;;;;;7.40;76.42;96518.13;5157205;27;20500;-63
2023/10/08 04:16:52;;;;;;;9.13;4.45;;;;;;;7.43;76.54;96520.66;5157144;27;20043;-61
2023/10/08 04:19:21;;;;;;;6.47;4.10;;;;;;;7.48;76.15;96515.31;5156945;27;20074;-62
2023/10/08 04:21:53;;;;;;;5.80;4.30;;;;;;;7.43;76.01;96509.38;5157049;27;20065;-60
2023/10/08 04:24:28;;;;;;;5.82;4.15;;;;;;;7.44;76.24;96505.91;5156866;27;20050;-63
2023/10/08 04:27:01;;;;;;;5.70;4.10;;;;;;;7.49;75.82;96516.19;5156623;27;20053;-61
2023/10/08 04:29:32;;;;;;;7.72;4.22;;;;;;;7.45;75.68;96515.41;5156726;27;20050;-62
2023/10/08 04:32:09;;;;;;;6.18;3.50;;;;;;;7.47;75.81;96524.03;5156761;27;20377;-61
2023/10/08 04:34:36;;;;;;;5.80;4.07;;;;;;;7.45;75.61;96520.59;5156659;27;20395;-63
2023/10/08 04:37:12;;;;;;;10.45;4.60;;;;;;;7.43;75.82;96519.78;5156607;27;20078;-61
2023/10/08 04:39:40;;;;;;;7.18;4.18;;;;;;;7.38;76.03;96526.88;5156636;27;20047;-63
2023/10/08 04:42:12;;;;;;;8.70;3.95;;;;;;;7.35;76.39;96521.75;5156671;27;20085;-61
2023/10/08 04:44:40;;;;;;;7.22;4.07;;;;;;;7.38;76.02;96530.34;5156692;27;20132;-62
2023/10/08 04:47:10;;;;;;;9.90;4.50;;;;;;;7.29;76.33;96525.34;5156374;27;20053;-63
2023/10/08 04:49:45;;;;;;;7.68;4.03;;;;;;;7.28;76.70;96534.03;5156369;27;20043;-61
2023/10/08 04:52:14;;;;;;;8.68;4.20;;;;;;;7.28;76.63;96534.91;5156419;27;20047;-61
2023/10/08 04:54:51;;;;;;;7.25;4.38;;;;;;;7.32;76.61;96533.09;5156399;27;20095;-62
2023/10/08 04:57:22;;;;;;;6.68;4.22;;;;;;;7.37;76.92;96530.38;5156268;27;20095;-61
2023/10/08 04:59:50;;;;;;;6.10;4.03;;;;;;;7.44;76.82;96537.97;5156157;27;20047;-62
2023/10/08 05:02:34;;;;;;;6.47;4.32;;;;;;;7.51;76.47;96535.19;5157156;27;20046;-60
2023/10/08 05:10:56;;;;;;;15.32;5.38;;;;;;;7.80;77.10;96531.81;5156179;27;20412;-62
2023/10/08 05:13:30;;;;;;;11.60;3.97;;;;;;;9.10;74.72;96531.53;5155918;27;20050;-61
2023/10/08 05:16:11;;;;;;;11.88;4.13;;;;;;;10.85;68.15;96532.44;5155944;27;20046;-63
2023/10/08 05:19:07;;;;;;;5.95;3.20;;;;;;;12.71;61.45;96528.09;5155935;27;20506;-62
2023/10/08 05:21:51;;;;;;;6.43;3.72;;;;;;;14.54;54.70;96529.53;5155651;27;20042;-62
2023/10/08 05:24:27;;;;;;;6.22;3.70;;;;;;;16.11;51.26;96534.81;5155663;27;20072;-63
2023/10/08 05:27:15;;;;;;;8.73;3.85;;;;;;;17.42;47.66;96530.19;5155382;27;20116;-63
2023/10/08 05:29:52;;;;;;;5.13;3.00;;;;;;;18.74;44.71;96538.09;5155570;27;20127;-63
2023/10/08 05:37:47;;;;;;;5.50;3.45;;;;;;;21.57;38.56;96525.53;5155465;27;20495;-62
2023/10/08 05:40:43;;;;;;;7.07;4.25;;;;;;;22.37;37.84;96534.03;5155505;27;20398;-63
2023/10/08 05:43:22;;;;;;;8.30;3.50;;;;;;;23.22;35.74;96531.09;5155354;27;20134;-64
2023/10/08 05:46:19;;;;;;;4.93;3.22;;;;;;;23.82;34.12;96537.31;5155273;27;20125;-62
2023/10/08 05:48:45;;;;;;;5.25;3.85;;;;;;;24.60;32.99;96536.31;5155208;27;20142;-63
2023/10/08 05:51:23;;;;;;;7.53;3.58;;;;;;;25.38;32.53;96537.88;5155298;27;20121;-63
2023/10/08 05:53:55;;;;;;;5.85;3.50;;;;;;;25.96;31.29;96533.91;5155430;27;20050;-62
2023/10/08 05:56:28;;;;;;;5.97;3.80;;;;;;;26.46;31.26;96538.78;5155146;27;20559;-60
2023/10/08 05:59:14;;;;;;;6.97;3.65;;;;;;;26.83;30.79;96542.16;5155009;27;20053;-60
2023/10/08 06:01:42;;;;;;;10.68;3.83;;;;;;;27.09;30.14;96536.72;5155161;27;20151;-59
2023/10/08 06:07:12;;;;;;;5.93;3.58;;;;;;;28.32;27.42;96546.13;5155232;27;20062;-60
2023/10/08 06:09:39;;;;;;;6.43;3.92;;;;;;;28.84;26.81;96538.56;5154823;27;20038;-62
2023/10/08 06:12:19;;;;;;;5.82;3.85;;;;;;;28.98;25.97;96543.22;5154734;27;20042;-61
2023/10/08 06:20:28;;;;;;;7.72;4.07;;;;;;;30.52;24.60;96531.84;5147725;27;20137;-60
2023/10/08 06:23:03;;;;;;;4.63;3.80;;;;;;;30.84;25.05;96537.06;5154915;27;20055;-60
2023/10/08 06:25:30;;;;;;;7.50;4.00;;;;;;;31.44;25.06;96533.41;5154828;27;20047;-62
2023/10/08 06:27:58;;;;;;;6.15;3.90;;;;;;;32.07;25.02;96534.66;5154411;27;20445;-62
2023/10/08 06:30:29;;;;;;;4.75;3.95;;;;;;;32.72;23.99;96526.34;5154709;27;20047;-61
2023/10/08 06:32:57;;;;;;;6.30;3.97;;;;;;;32.70;23.00;96525.75;5154755;27;20053;-60
2023/10/08 06:35:28;;;;;;;7.85;4.32;;;;;;;32.84;21.55;96531.22;5154805;27;20483;-61
2023/10/08 06:37:59;;;;;;;6.65;3.67;;;;;;;32.86;21.47;96523.72;5154669;27;20480;-64
2023/10/08 06:40:42;;;;;;;7.93;4.00;;;;;;;33.07;23.63;96528.22;5154700;27;20138;-60
2023/10/08 06:43:21;;;;;;;5.50;3.67;;;;;;;33.59;23.32;96533.16;5154681;27;20133;-61
2023/10/08 06:45:52;;;;;;;4.97;3.58;;;;;;;34.21;22.77;96529.47;5154828;27;20050;-62
2023/10/08 06:48:21;;;;;;;6.93;3.97;;;;;;;34.45;21.96;96539.88;5154787;27;20055;-61
2023/10/08 06:50:49;;;;;;;6.35;3.78;;;;;;;34.63;20.60;96536.50;5154742;27;20404;-60
2023/10/08 06:53:19;;;;;;;7.28;4.22;;;;;;;34.88;20.43;96541.28;5154446;27;20126;-62
2023/10/08 06:55:48;;;;;;;5.72;3.67;;;;;;;35.11;20.16;96527.19;5154550;27;20510;-60
2023/10/08 06:58:17;;;;;;;5.47;4.07;;;;;;;35.04;20.79;96524.47;5154499;27;20039;-61
2023/10/08 07:00:48;;;;;;;6.20;4.27;;;;;;;34.90;20.20;96537.31;5154406;27;20047;-61
2023/10/08 07:03:17;;;;;;;5.80;3.53;;;;;;;34.77;19.09;96527.31;5154471;27;20279;-61
2023/10/08 07:05:53;;;;;;;11.25;3.83;;;;;;;34.35;17.58;96529.47;5154694;27;20096;-62
2023/10/08 07:08:24;;;;;;;7.15;4.38;;;;;;;33.60;19.31;96528.59;5154482;27;20081;-62
2023/10/08 07:10:53;;;;;;;7.55;3.92;;;;;;;33.28;19.54;96518.28;5154191;27;20050;-62
2023/10/08 07:13:22;;;;;;;5.63;3.88;;;;;;;32.98;19.81;96519.41;5154438;27;20074;-61
2023/10/08 07:15:50;;;;;;;5.97;3.95;;;;;;;32.92;20.62;96503.97;5154449;27;20099;-61
2023/10/08 07:18:24;;;;;;;6.07;4.30;;;;;;;32.57;18.73;96509.44;5154339;27;20046;-61
2023/10/08 07:20:55;;;;;;;6.78;3.92;;;;;;;32.44;19.48;96512.88;5154331;27;20495;-61
2023/10/08 07:23:29;;;;;;;7.90;3.60;;;;;;;32.10;18.65;96501.81;5154390;27;20072;-62
2023/10/08 07:25:58;;;;;;;4.68;3.60;;;;;;;31.64;18.41;96503.91;5157920;27;20047;-61
2023/10/08 07:28:26;;;;;;;5.23;3.50;;;;;;;31.39;18.95;96502.41;5157909;27;20082;-61
2023/10/08 07:30:54;;;;;;;6.35;3.88;;;;;;;31.18;19.65;96500.50;5158115;27;20332;-61
2023/10/08 07:33:24;;;;;;;8.43;3.72;;;;;;;30.80;20.65;96500.66;5158020;27;20043;-61
2023/10/08 07:35:57;;;;;;;5.50;3.67;;;;;;;30.32;19.45;96502.72;5158266;27;20110;-61
2023/10/08 07:38:28;;;;;;;6.32;3.47;;;;;;;30.21;19.38;96501.31;5159814;27;20112;-61
2023/10/08 07:40:57;;;;;;;7.32;3.53;;;;;;;30.24;19.47;96494.69;5158701;27;20506;-60
2023/10/08 07:43:24;;;;;;;6.28;3.50;;;;;;;29.94;18.92;96483.84;5157448;27;20043;-60
2023/10/08 07:45:53;;;;;;;7.97;3.55;;;;;;;29.84;19.95;96484.94;5157639;27;20047;-60
2023/10/08 07:48:29;;;;;;;4.38;3.67;;;;;;;29.85;20.37;96485.78;5157497;27;20077;-61
2023/10/08 07:50:58;;;;;;;7.13;3.47;;;;;;;30.03;20.12;96485.44;5157436;27;20061;-61
2023/10/08 07:53:37;;;;;;;5.30;3.78;;;;;;;30.05;19.23;96486.09;5157581;27;20039;-60
2023/10/08 07:56:10;;;;;;;4.85;3.78;;;;;;;30.01;19.57;96479.41;5157367;27;20047;-61
2023/10/08 07:58:38;;;;;;;4.35;3.30;;;;;;;30.00;19.47;96486.66;5157378;27;20106;-60
2023/10/08 08:01:10;;;;;;;7.85;4.20;;;;;;;29.91;19.63;96479.66;5157468;27;20050;-61
2023/10/08 08:03:41;;;;;;;4.38;3.33;;;;;;;29.94;19.48;96468.50;5157368;27;20071;-60
2023/10/08 08:06:10;;;;;;;7.00;3.65;;;;;;;30.05;19.23;96469.09;5157159;27;20038;-60
2023/10/08 08:08:39;;;;;;;5.15;3.80;;;;;;;30.01;19.17;96461.34;5156931;27;20100;-60
2023/10/08 08:11:11;;;;;;;6.18;3.42;;;;;;;30.07;19.97;96467.06;5157038;27;20050;-61
2023/10/08 08:13:42;;;;;;;7.63;4.00;;;;;;;30.09;19.06;96463.16;5157114;27;20138;-60
2023/10/08 08:16:17;;;;;;;;;;;;;;;29.68;18.15;96456.31;5157594;27;20130;-60
2023/10/08 08:18:45;;;;;;;4.45;3.75;;;;;;;29.40;19.63;96451.44;5156927;27;20384;-61
2023/10/08 08:21:15;;;;;;;4.53;3.25;;;;;;;29.36;19.97;96461.75;5156918;27;20046;-60
2023/10/08 08:23:48;;;;;;;14.15;3.70;;;;;;;29.31;18.61;96449.84;5156803;27;20050;-61
2023/10/08 08:26:28;;;;;;;4.82;3.40;;;;;;;29.16;19.50;96447.09;5156720;27;20047;-61
2023/10/08 08:28:57;;;;;;;5.40;3.47;;;;;;;29.28;19.29;96440.25;5156687;27;20511;-60
2023/10/08 08:31:25;;;;;;;5.32;3.63;;;;;;;29.47;19.16;96438.09;5156718;27;20050;-61
2023/10/08 08:33:57;;;;;;;7.57;3.80;;;;;;;29.53;18.93;96440.06;5156525;27;20053;-61
2023/10/08 08:36:25;;;;;;;5.55;3.45;;;;;;;29.33;20.38;96435.16;5156472;27;20058;-60
2023/10/08 08:38:55;;;;;;;6.55;3.55;;;;;;;29.25;19.02;96438.75;5156448;27;20057;-60
2023/10/08 08:41:23;;;;;;;7.13;3.55;;;;;;;29.10;19.49;96432.44;5156423;27;20161;-61
2023/10/08 08:43:56;;;;;;;5.90;3.80;;;;;;;29.04;19.18;96431.31;5156570;27;20046;-60
2023/10/08 08:46:29;;;;;;;9.88;3.80;;;;;;;29.03;20.27;96426.13;5156420;27;20094;-60
2023/10/08 08:48:59;;;;;;;4.53;3.70;;;;;;;29.29;20.56;96420.41;5156410;27;20515;-61
2023/10/08 08:51:26;;;;;;;4.93;3.30;;;;;;;29.36;19.41;96413.28;5156261;27;20403;-60
2023/10/08 08:53:55;;;;;;;6.68;3.50;;;;;;;29.30;19.00;96411.28;5156364;27;20047;-60
2023/10/08 08:56:23;;;;;;;5.68;3.70;;;;;;;29.23;20.03;96405.78;5156413;27;20046;-59
2023/10/08 08:58:51;;;;;;;4.70;3.22;;;;;;;29.32;19.64;96405.72;5156564;27;20544;-60
2023/10/08 09:01:20;;;;;;;11.25;3.72;;;;;;;29.17;20.06;96411.91;5156340;27;20111;-60
2023/10/08 09:03:50;;;;;;;6.38;3.35;;;;;;;29.17;20.19;96400.28;5156197;27;20049;-60
2023/10/08 09:06:17;;;;;;;6.35;3.72;;;;;;;29.09;21.64;96409.25;5156081;27;20057;-60
2023/10/08 09:08:45;;;;;;;7.47;3.42;;;;;;;29.09;21.95;96404.72;5156108;27;20092;-60
2023/10/08 09:11:17;;;;;;;10.80;3.70;;;;;;;28.95;21.55;96394.72;5155902;27;20050;-61
2023/10/08 09:13:45;;;;;;;7.57;3.65;;;;;;;28.72;21.90;96398.19;5155933;27;20100;-60
2023/10/08 09:16:16;;;;;;;202.63;8.95;;;;;;;28.74;22.04;96388.94;5155760;27;20373;-60
2023/10/08 09:18:45;;;;;;;709.55;29.45;;;;;;;28.85;22.22;96387.69;5155933;27;20475;-61
2023/10/08 09:21:15;;;;;;;21.70;4.22;;;;;;;29.18;21.83;96383.94;5155789;27;20053;-61
2023/10/08 09:23:47;;;;;;;3.95;3.10;;;;;;;29.08;21.60;96384.19;5155900;27;20475;-60
2023/10/08 09:26:19;;;;;;;9.20;4.03;;;;;;;29.09;21.09;96375.09;5155583;27;20050;-60
2023/10/08 09:28:48;;;;;;;9.23;3.47;;;;;;;28.92;21.45;96366.28;5155703;27;20050;-60
2023/10/08 09:31:17;;;;;;;7.10;3.72;;;;;;;28.87;22.34;96366.81;5155514;27;20069;-61
2023/10/08 09:33:54;;;;;;;10.65;4.00;;;;;;;28.81;22.79;96375.63;5155705;27;20550;-60
2023/10/08 09:36:31;;;;;;;6.63;3.50;;;;;;;28.90;22.76;96379.09;5155488;27;20042;-60
2023/10/08 09:39:04;;;;;;;6.10;3.20;;;;;;;28.94;22.13;96371.50;5155480;27;20050;-61
2023/10/08 09:41:34;;;;;;;7.35;3.03;;;;;;;29.09;22.50;96374.25;5155347;27;20051;-60
2023/10/08 09:44:04;;;;;;;7.38;3.65;;;;;;;28.94;22.21;96363.44;5155582;27;20069;-61
2023/10/08 09:46:34;;;;;;;12.30;3.38;;;;;;;28.81;23.08;96364.00;5155075;27;20042;-60
2023/10/08 09:49:06;;;;;;;;;;;;;;;28.64;23.05;96358.72;5155717;27;20125;-59
2023/10/08 09:51:39;;;;;;;10.25;3.60;;;;;;;28.76;23.64;96356.47;5155297;27;19919;-61
2023/10/08 09:54:13;;;;;;;9.35;3.88;;;;;;;28.86;22.75;96351.69;5155226;27;20107;-59
2023/10/08 09:56:44;;;;;;;5.47;3.65;;;;;;;28.93;23.29;96351.84;5155140;27;20050;-59
2023/10/08 09:59:14;;;;;;;7.18;3.45;;;;;;;29.12;22.76;96355.06;5155237;27;20216;-60
2023/10/08 10:01:45;;;;;;;38.58;8.18;;;;;;;29.04;20.94;96361.34;5155011;27;20075;-60
2023/10/08 10:04:15;;;;;;;;;;;;;;;29.05;21.46;96354.97;5155572;27;20039;-59
2023/10/08 10:06:44;;;;;;;7.22;2.58;;;;;;;28.73;21.93;96362.19;5154987;27;19983;-60
2023/10/08 10:09:24;;;;;;;10.65;3.17;;;;;;;28.69;22.39;96352.81;5154957;27;20126;-59
2023/10/08 10:11:56;;;;;;;6.18;3.22;;;;;;;28.72;22.96;96342.53;5154934;27;20065;-60
2023/10/08 10:14:27;;;;;;;6.30;3.70;;;;;;;28.79;21.75;96337.28;5154247;27;20499;-60
2023/10/08 10:17:16;;;;;;;16.40;13.73;;;;;;;28.93;21.86;96326.75;5134467;27;20051;-62
2023/10/08 10:19:45;;;;;;;6.88;3.65;;;;;;;28.99;22.43;96334.16;5132876;27;20054;-61
2023/10/08 10:22:28;;;;;;;12.02;4.05;;;;;;;28.95;22.31;96328.28;5133408;28;20493;-61
2023/10/08 10:24:56;;;;;;;51.58;4.05;;;;;;;29.07;22.38;96330.56;5133931;27;20167;-61
2023/10/08 10:27:25;;;;;;;5.75;3.10;;;;;;;28.96;22.87;96321.03;5133603;27;20104;-61
2023/10/08 10:29:52;;;;;;;5.85;3.20;;;;;;;28.79;21.88;96310.38;5133760;27;20051;-62
2023/10/08 10:32:20;;;;;;;11.15;3.03;;;;;;;28.70;22.84;96308.75;5134012;27;20396;-62
2023/10/08 10:34:51;;;;;;;17.52;3.65;;;;;;;28.66;22.03;96305.59;5133929;28;20100;-62
2023/10/08 10:37:22;;;;;;;8.15;3.20;;;;;;;28.59;22.44;96310.84;5132630;28;20047;-62
2023/10/08 10:39:59;;;;;;;10.00;2.95;;;;;;;28.59;23.23;96291.19;5133727;28;20051;-62
2023/10/08 10:42:28;;;;;;;6.35;3.05;;;;;;;28.61;22.60;96297.22;5133896;27;20089;-62
2023/10/08 10:44:58;;;;;;;9.55;3.55;;;;;;;28.62;22.97;96293.50;5133645;27;20055;-62
2023/10/08 10:47:27;;;;;;;10.10;3.63;;;;;;;28.57;23.07;96298.59;5149625;27;20039;-62
2023/10/08 10:50:10;;;;;;;7.70;3.17;;;;;;;28.46;23.16;96291.75;5154387;27;20051;-62
2023/10/08 10:52:44;;;;;;;9.07;3.70;;;;;;;28.40;23.95;96279.03;5154483;27;20429;-62
2023/10/08 10:55:31;;;;;;;8.23;3.35;;;;;;;28.47;22.85;96280.00;5154291;27;20480;-62
2023/10/08 10:58:11;;;;;;;8.80;3.28;;;;;;;28.41;23.83;96286.91;5154324;27;20058;-62
2023/10/08 11:00:56;;;;;;;17.75;3.22;;;;;;;28.26;23.69;96276.06;5157718;27;20042;-62
2023/10/08 11:03:23;;;;;;;9.25;3.10;;;;;;;28.20;23.94;96280.28;5158573;27;20049;-62
2023/10/08 11:05:55;;;;;;;9.65;2.70;;;;;;;28.29;23.21;96264.97;5158173;27;20493;-62
2023/10/08 11:08:31;;;;;;;37.70;8.07;;;;;;;28.26;24.01;96276.06;5158403;27;20046;-62
2023/10/08 11:10:59;;;;;;;10.05;3.28;;;;;;;28.28;23.99;96268.66;5151795;27;20047;-62
2023/10/08 11:13:37;;;;;;;8.68;3.03;;;;;;;28.21;23.74;96279.28;5158166;27;20047;-62
2023/10/08 11:16:05;;;;;;;14.55;3.72;;;;;;;28.06;24.31;96265.75;5158217;27;20051;-62
2023/10/08 11:18:33;;;;;;;107.88;18.80;;;;;;;28.12;24.12;96261.53;5158299;27;20047;-63
2023/10/08 11:21:15;;;;;;;10.23;3.42;;;;;;;28.13;24.16;96255.97;5158106;27;20078;-62
2023/10/08 11:23:55;;;;;;;23.10;4.05;;;;;;;28.18;24.06;96262.66;5158201;27;20043;-62
2023/10/08 11:26:35;;;;;;;11.88;3.42;;;;;;;28.02;24.23;96260.91;5147727;27;20086;-62
2023/10/08 11:29:14;;;;;;;12.35;3.85;;;;;;;28.04;25.43;96253.50;5137381;27;20051;-62
2023/10/08 11:31:43;;;;;;;13.27;3.60;;;;;;;28.02;24.37;96258.22;5136937;27;20078;-62
2023/10/08 11:34:13;;;;;;;15.25;3.70;;;;;;;27.67;24.04;96245.97;5137057;27;20043;-62
2023/10/08 11:36:55;;;;;;;7.93;3.57;;;;;;;27.67;24.53;96240.59;5137397;27;20047;-62
2023/10/08 11:39:22;;;;;;;9.48;3.80;;;;;;;27.79;24.42;96235.66;5152473;27;20103;-62
2023/10/08 11:42:06;;;;;;;12.07;3.35;;;;;;;27.82;24.75;96238.00;5157350;27;20129;-62
2023/10/08 11:44:36;;;;;;;8.93;3.05;;;;;;;27.88;24.70;96234.59;5156931;27;20400;-62
2023/10/08 11:47:11;;;;;;;14.07;3.17;;;;;;;27.90;25.03;96236.28;5157780;27;20128;-62
2023/10/08 11:49:46;;;;;;;6.75;2.83;;;;;;;28.01;24.26;96233.19;5157400;27;20078;-62
2023/10/08 11:52:15;;;;;;;12.63;3.92;;;;;;;27.97;24.24;96234.56;5142231;27;20047;-63
2023/10/08 11:54:42;;;;;;;14.38;4.07;;;;;;;28.06;24.48;96227.28;5137121;27;20085;-62
2023/10/08 11:57:11;;;;;;;10.75;4.53;;;;;;;28.05;23.90;96241.75;5137046;27;20125;-62
2023/10/08 11:59:41;;;;;;;10.88;3.65;;;;;;;28.10;23.97;96233.97;5136819;27;20480;-62
2023/10/08 12:02:16;;;;;;;15.43;3.75;;;;;;;28.13;24.15;96225.56;5136580;27;20043;-62
2023/10/08 12:04:44;;;;;;;11.70;4.22;;;;;;;28.11;24.27;96214.19;5135252;27;20047;-63
2023/10/08 12:07:13;;;;;;;11.73;3.42;;;;;;;28.10;24.44;96215.16;5135379;27;20079;-62
2023/10/08 12:09:41;;;;;;;10.40;3.28;;;;;;;28.13;23.65;96215.66;5136152;27;20066;-62
2023/10/08 12:12:11;;;;;;;11.98;3.25;;;;;;;28.07;24.33;96221.75;5135454;27;20047;-62
2023/10/08 12:14:47;;;;;;;13.45;4.32;;;;;;;28.04;24.23;96214.03;5135433;27;20108;-62
2023/10/08 12:17:17;;;;;;;14.18;4.22;;;;;;;28.04;23.83;96214.03;5135283;27;20458;-62
2023/10/08 12:19:45;;;;;;;12.23;4.53;;;;;;;28.03;23.76;96211.53;5135905;27;20130;-62